createdAt,value
2018-09-08T00:02:16.516Z,31.90
2018-09-08T00:04:45.617Z,31.80
2018-09-08T00:07:18.856Z,32.50
2018-09-08T00:09:46.582Z,31.30
2018-09-08T00:12:14.451Z,31.20
2018-09-08T00:14:48.692Z,30.70
2018-09-08T00:17:22.312Z,30.70
2018-09-08T00:19:55.906Z,30.70
2018-09-08T00:22:29.459Z,30.60
2018-09-08T00:25:03.065Z,30.60
2018-09-08T00:27:36.502Z,30.50
2018-09-08T00:30:12.772Z,30.50
2018-09-08T00:32:40.849Z,30.50
2018-09-08T00:35:10.202Z,30.40
2018-09-08T00:37:39.266Z,30.40
2018-09-08T00:40:06.948Z,30.40
2018-09-08T00:42:36.003Z,30.40
2018-09-08T00:45:04.031Z,30.50
2018-09-08T00:47:31.792Z,30.50
2018-09-08T00:50:03.703Z,30.40
2018-09-08T00:52:31.385Z,31.20
2018-09-08T00:54:59.229Z,30.40
2018-09-08T00:57:26.935Z,30.40
2018-09-08T00:59:55.299Z,30.40
2018-09-08T01:02:23.393Z,30.50
2018-09-08T01:04:53.533Z,30.50
2018-09-08T01:07:34.093Z,30.40
2018-09-08T01:10:02.415Z,30.50
2018-09-08T01:12:30.603Z,30.50
2018-09-08T01:14:58.703Z,30.50
2018-09-08T01:17:27.841Z,30.50
2018-09-08T01:19:58.558Z,30.90
2018-09-08T01:22:27.598Z,31.00
2018-09-08T01:24:55.311Z,30.50
2018-09-08T01:27:23.179Z,30.70
2018-09-08T01:29:51.357Z,30.50
2018-09-08T01:32:19.951Z,30.60
2018-09-08T01:34:52.639Z,30.50
2018-09-08T01:37:23.767Z,30.50
2018-09-08T01:40:10.649Z,30.50
2018-09-08T01:45:17.272Z,30.90
2018-09-08T01:47:45.642Z,30.40
2018-09-08T01:50:13.344Z,30.40
2018-09-08T01:52:40.979Z,30.60
2018-09-08T01:55:08.850Z,30.90
2018-09-08T01:57:37.130Z,30.30
2018-09-08T02:00:11.079Z,30.80
2018-09-08T02:02:39.055Z,30.40
2018-09-08T02:05:07.245Z,30.40
2018-09-08T02:07:35.335Z,30.90
2018-09-08T02:10:03.174Z,30.70
2018-09-08T02:12:31.048Z,31.00
2018-09-08T02:14:58.798Z,31.20
2018-09-08T02:17:26.564Z,31.20
2018-09-08T02:19:56.806Z,31.40
2018-09-08T02:22:25.070Z,31.40
2018-09-08T02:24:52.922Z,31.50
2018-09-08T02:27:21.087Z,31.80
2018-09-08T02:29:48.737Z,31.80
2018-09-08T02:32:16.827Z,32.10
2018-09-08T02:34:44.475Z,32.40
2018-09-08T02:37:18.315Z,32.40
2018-09-08T02:39:46.281Z,32.40
2018-09-08T02:42:14.633Z,32.60
2018-09-08T02:44:42.287Z,32.50
2018-09-08T02:49:55.366Z,32.20
2018-09-08T02:52:21.930Z,32.20
2018-09-08T02:54:48.619Z,32.20
2018-09-08T02:57:21.393Z,32.50
2018-09-08T02:59:48.232Z,32.40
2018-09-08T03:02:14.885Z,32.60
2018-09-08T03:04:42.343Z,32.60
2018-09-08T03:07:13.292Z,32.80
2018-09-08T03:09:41.994Z,32.70
2018-09-08T03:12:08.627Z,32.90
2018-09-08T03:14:35.438Z,32.80
2018-09-08T03:17:01.968Z,32.90
2018-09-08T03:19:28.606Z,33.20
2018-09-08T03:21:55.159Z,33.40
2018-09-08T03:24:21.683Z,33.10
2018-09-08T03:26:49.548Z,33.10
2018-09-08T03:29:16.516Z,33.40
2018-09-08T03:31:43.354Z,33.40
2018-09-08T03:34:10.228Z,33.40
2018-09-08T03:36:36.836Z,33.30
2018-09-08T03:39:04.249Z,33.40
2018-09-08T03:41:36.769Z,33.40
2018-09-08T03:44:03.419Z,33.40
2018-09-08T03:46:29.969Z,33.40
2018-09-08T03:48:56.574Z,33.50
2018-09-08T03:51:23.200Z,33.50
2018-09-08T03:54:09.780Z,33.50
2018-09-08T03:56:48.232Z,33.60
2018-09-08T03:59:15.494Z,33.80
2018-09-08T04:01:45.997Z,33.80
2018-09-08T04:04:13.778Z,33.80
2018-09-08T04:06:41.411Z,33.90
2018-09-08T04:09:10.253Z,34.10
2018-09-08T04:11:41.982Z,33.90
2018-09-08T04:14:09.754Z,33.90
2018-09-08T04:16:39.162Z,33.80
2018-09-08T04:19:07.637Z,33.80
2018-09-08T04:21:35.641Z,34.20
2018-09-08T04:24:03.491Z,34.40
2018-09-08T04:26:31.421Z,34.60
2018-09-08T04:28:59.069Z,34.70
2018-09-08T04:31:28.965Z,34.80
2018-09-08T04:34:12.844Z,34.40
2018-09-08T04:36:43.456Z,34.40
2018-09-08T04:39:15.183Z,34.50
2018-09-08T04:41:45.780Z,34.50
2018-09-08T04:44:13.983Z,34.90
2018-09-08T04:46:43.946Z,34.60
2018-09-08T04:49:24.540Z,34.60
2018-09-08T04:51:52.224Z,34.90
2018-09-08T04:54:20.089Z,34.70
2018-09-08T04:56:48.277Z,34.90
2018-09-08T04:59:16.077Z,35.40
2018-09-08T05:01:53.875Z,36.10
2018-09-08T05:04:42.260Z,36.00
2018-09-08T05:07:24.054Z,35.90
2018-09-08T05:09:51.878Z,35.60
2018-09-08T05:12:26.180Z,35.50
2018-09-08T05:14:53.831Z,35.30
2018-09-08T05:17:21.558Z,35.30
2018-09-08T05:19:49.828Z,35.50
2018-09-08T05:25:33.915Z,35.50
2018-09-08T05:33:21.983Z,35.70
2018-09-08T05:35:51.645Z,35.50
2018-09-08T05:38:19.965Z,35.80
2018-09-08T05:44:04.044Z,35.50
2018-09-08T05:46:32.028Z,36.10
2018-09-08T05:49:00.657Z,35.90
2018-09-08T05:51:33.543Z,35.70
2018-09-08T05:54:01.363Z,35.60
2018-09-08T05:59:45.298Z,36.20
2018-09-08T06:02:14.147Z,36.10
2018-09-08T06:04:42.157Z,35.70
2018-09-08T06:07:15.192Z,36.00
2018-09-08T06:09:43.035Z,36.50
2018-09-08T06:12:10.792Z,36.30
2018-09-08T06:14:38.890Z,36.20
2018-09-08T06:17:08.352Z,36.00
2018-09-08T06:19:36.682Z,35.80
2018-09-08T06:22:08.393Z,36.10
2018-09-08T06:24:40.971Z,36.40
2018-09-08T06:27:09.342Z,36.40
2018-09-08T06:29:37.216Z,36.30
2018-09-08T06:32:10.402Z,36.00
2018-09-08T06:34:38.641Z,35.60
2018-09-08T06:37:07.806Z,35.60
2018-09-08T06:39:39.917Z,35.50
2018-09-08T06:42:08.951Z,35.60
2018-09-08T06:44:37.747Z,35.40
2018-09-08T06:47:12.138Z,35.20
2018-09-08T06:49:40.138Z,35.10
2018-09-08T06:52:08.205Z,34.80
2018-09-08T06:57:08.846Z,34.60
2018-09-08T06:59:36.645Z,34.40
2018-09-08T07:02:04.347Z,34.00
2018-09-08T07:04:32.047Z,34.10
2018-09-08T07:06:59.703Z,34.00
2018-09-08T07:09:27.572Z,34.30
2018-09-08T07:14:40.033Z,33.80
2018-09-08T07:17:16.976Z,33.90
2018-09-08T07:19:45.663Z,33.80
2018-09-08T07:22:15.085Z,33.30
2018-09-08T07:24:43.615Z,33.60
2018-09-08T07:27:17.383Z,33.50
2018-09-08T07:29:46.634Z,33.70
2018-09-08T07:32:27.305Z,33.20
2018-09-08T07:34:54.982Z,32.70
2018-09-08T07:37:24.511Z,33.00
2018-09-08T07:39:53.308Z,32.50
2018-09-08T07:42:21.352Z,32.70
2018-09-08T07:45:05.543Z,32.40
2018-09-08T07:47:33.339Z,32.10
2018-09-08T07:50:01.022Z,31.50
2018-09-08T07:55:30.452Z,31.70
2018-09-08T07:57:58.609Z,29.90
2018-09-08T08:00:26.315Z,29.50
2018-09-08T08:02:54.806Z,29.50
2018-09-08T08:05:23.231Z,29.50
2018-09-08T08:07:51.520Z,29.60
2018-09-08T08:10:21.325Z,30.00
2018-09-08T08:12:50.182Z,29.60
2018-09-08T08:15:19.866Z,29.70
2018-09-08T08:17:47.660Z,28.30
2018-09-08T08:20:15.440Z,28.00
2018-09-08T08:22:43.812Z,27.80
2018-09-08T08:25:11.536Z,27.90
2018-09-08T08:27:39.313Z,27.80
2018-09-08T08:30:07.366Z,27.50
2018-09-08T08:32:35.424Z,27.60
2018-09-08T08:35:04.129Z,26.80
2018-09-08T08:37:32.009Z,27.30
2018-09-08T08:39:59.876Z,26.70
2018-09-08T08:42:27.675Z,27.10
2018-09-08T08:44:55.784Z,26.10
2018-09-08T08:47:25.176Z,26.60
2018-09-08T08:50:04.314Z,26.10
2018-09-08T08:52:43.564Z,25.80
2018-09-08T08:55:10.187Z,24.50
2018-09-08T08:57:37.916Z,25.20
2018-09-08T09:00:05.715Z,25.20
2018-09-08T09:02:34.692Z,25.10
2018-09-08T09:05:03.168Z,25.40
2018-09-08T09:07:30.863Z,25.30
2018-09-08T09:09:58.738Z,25.10
2018-09-08T09:12:26.523Z,25.20
2018-09-08T09:14:54.498Z,24.70
2018-09-08T09:17:22.255Z,24.50
2018-09-08T09:20:01.292Z,24.00
2018-09-08T09:22:40.414Z,24.00
2018-09-08T09:25:09.643Z,23.50
2018-09-08T09:27:45.978Z,24.00
2018-09-08T09:30:14.217Z,23.80
2018-09-08T09:32:41.953Z,24.10
2018-09-08T09:35:11.490Z,24.10
2018-09-08T09:37:39.255Z,23.80
2018-09-08T09:40:07.531Z,23.60
2018-09-08T09:42:35.203Z,22.80
2018-09-08T09:45:03.641Z,22.50
2018-09-08T09:47:31.355Z,22.50
2018-09-08T09:50:01.079Z,22.50
2018-09-08T09:52:29.392Z,22.50
2018-09-08T09:54:57.316Z,22.60
2018-09-08T09:57:25.386Z,22.60
2018-09-08T09:59:53.854Z,22.70
2018-09-08T10:02:51.955Z,22.70
2018-09-08T10:05:21.279Z,22.70
2018-09-08T10:07:50.352Z,22.80
2018-09-08T10:10:19.796Z,22.80
2018-09-08T10:12:47.635Z,22.80
2018-09-08T10:15:15.610Z,22.80
2018-09-08T10:17:43.868Z,21.10
2018-09-08T10:20:18.223Z,20.90
2018-09-08T10:28:46.101Z,22.50
2018-09-08T10:31:16.355Z,22.00
2018-09-08T10:33:54.184Z,22.30
2018-09-08T10:36:22.045Z,21.40
2018-09-08T10:38:49.926Z,21.60
2018-09-08T10:43:50.735Z,21.80
2018-09-08T10:46:18.777Z,22.00
2018-09-08T10:48:51.723Z,21.90
2018-09-08T10:51:46.127Z,21.70
2018-09-08T10:54:14.112Z,21.00
2018-09-08T10:56:42.713Z,20.30
2018-09-08T10:59:15.454Z,19.90
2018-09-08T11:04:48.778Z,20.70
2018-09-08T11:07:22.231Z,21.00
2018-09-08T11:12:57.196Z,20.90
2018-09-08T11:15:33.661Z,20.60
2018-09-08T11:18:03.505Z,20.70
2018-09-08T11:23:37.059Z,20.70
2018-09-08T11:29:08.011Z,20.50
2018-09-08T11:31:35.820Z,20.70
2018-09-08T11:34:04.276Z,19.80
2018-09-08T11:36:31.991Z,18.40
2018-09-08T11:39:00.541Z,18.30
2018-09-08T11:41:28.624Z,18.80
2018-09-08T11:43:56.724Z,18.70
2018-09-08T11:46:26.453Z,18.70
2018-09-08T11:48:55.763Z,18.60
2018-09-08T11:51:23.654Z,17.90
2018-09-08T11:53:52.316Z,17.70
2018-09-08T11:56:21.119Z,17.90
2018-09-08T11:58:48.846Z,18.20
2018-09-08T12:01:16.641Z,17.60
2018-09-08T12:03:44.751Z,17.20
2018-09-08T12:06:14.848Z,17.20
2018-09-08T12:08:42.803Z,16.30
2018-09-08T12:11:14.336Z,16.80
2018-09-08T12:13:42.052Z,16.60
2018-09-08T12:16:13.378Z,16.60
2018-09-08T12:18:43.380Z,16.30
2018-09-08T12:21:12.488Z,15.90
2018-09-08T12:23:41.251Z,16.10
2018-09-08T12:26:09.930Z,16.30
2018-09-08T12:28:37.847Z,16.10
2018-09-08T12:31:05.668Z,15.80
2018-09-08T12:33:33.775Z,16.00
2018-09-08T12:36:02.650Z,15.20
2018-09-08T12:38:30.629Z,15.50
2018-09-08T12:40:58.480Z,15.00
2018-09-08T12:43:27.163Z,15.20
2018-09-08T12:45:55.252Z,15.60
2018-09-08T12:48:23.025Z,15.00
2018-09-08T12:50:50.757Z,15.10
2018-09-08T12:53:18.395Z,15.10
2018-09-08T12:55:47.949Z,15.10
2018-09-08T12:58:15.905Z,15.30
2018-09-08T13:00:43.863Z,15.50
2018-09-08T13:03:11.535Z,15.80
2018-09-08T13:05:39.728Z,16.00
2018-09-08T13:08:07.519Z,15.40
2018-09-08T13:10:35.312Z,15.70
2018-09-08T13:13:05.493Z,15.30
2018-09-08T13:15:34.296Z,15.30
2018-09-08T13:18:03.021Z,15.30
2018-09-08T13:20:30.672Z,15.40
2018-09-08T13:22:58.380Z,15.20
2018-09-08T13:25:26.545Z,14.80
2018-09-08T13:27:54.617Z,15.00
2018-09-08T13:30:22.360Z,15.60
2018-09-08T13:32:59.425Z,16.10
2018-09-08T13:35:27.521Z,16.20
2018-09-08T13:37:55.263Z,16.00
2018-09-08T13:40:22.911Z,16.40
2018-09-08T13:42:51.797Z,16.10
2018-09-08T13:45:19.657Z,15.90
2018-09-08T13:47:47.498Z,16.20
2018-09-08T13:50:15.163Z,16.60
2018-09-08T13:52:43.423Z,16.70
2018-09-08T13:55:12.128Z,16.90
2018-09-08T13:57:39.909Z,16.20
2018-09-08T14:00:08.466Z,16.60
2018-09-08T14:02:37.734Z,16.30
2018-09-08T14:05:05.843Z,15.80
2018-09-08T14:07:33.754Z,15.90
2018-09-08T14:10:02.995Z,16.50
2018-09-08T14:12:30.826Z,15.90
2018-09-08T14:15:00.655Z,16.30
2018-09-08T14:17:28.406Z,16.90
2018-09-08T14:19:56.616Z,15.80
2018-09-08T14:22:24.676Z,16.90
2018-09-08T14:24:52.506Z,16.50
2018-09-08T14:27:20.156Z,16.40
2018-09-08T14:29:49.042Z,16.20
2018-09-08T14:32:17.300Z,16.60
2018-09-08T14:34:45.057Z,16.50
2018-09-08T14:37:12.691Z,16.70
2018-09-08T14:39:40.402Z,16.20
2018-09-08T14:42:08.147Z,15.80
2018-09-08T14:44:39.008Z,16.70
2018-09-08T14:47:06.756Z,16.80
2018-09-08T14:49:35.594Z,16.80
2018-09-08T14:52:03.432Z,16.80
2018-09-08T14:54:30.997Z,16.60
2018-09-08T14:56:59.020Z,16.50
2018-09-08T14:59:26.749Z,16.40
2018-09-08T15:01:54.436Z,16.20
2018-09-08T15:04:22.082Z,15.40
2018-09-08T15:06:49.990Z,15.40
2018-09-08T15:09:18.264Z,15.60
2018-09-08T15:11:46.033Z,16.10
2018-09-08T15:14:14.035Z,16.10
2018-09-08T15:16:44.699Z,15.60
2018-09-08T15:19:12.360Z,16.00
2018-09-08T15:21:40.114Z,16.00
2018-09-08T15:24:08.915Z,16.00
2018-09-08T15:26:36.762Z,16.20
2018-09-08T15:29:04.511Z,15.90
2018-09-08T15:31:32.438Z,16.10
2018-09-08T15:34:00.400Z,16.20
2018-09-08T15:36:28.155Z,16.70
2018-09-08T15:38:56.013Z,16.40
2018-09-08T15:41:23.855Z,16.30
2018-09-08T15:43:51.561Z,16.30
2018-09-08T15:46:19.329Z,15.80
2018-09-08T15:48:47.156Z,16.20
2018-09-08T15:51:14.811Z,16.30
2018-09-08T15:53:42.541Z,15.70
2018-09-08T15:56:10.217Z,15.90
2018-09-08T15:58:37.936Z,16.20
2018-09-08T16:01:06.639Z,16.30
2018-09-08T16:03:34.510Z,16.80
2018-09-08T16:06:07.071Z,16.80
2018-09-08T16:08:34.930Z,16.60
2018-09-08T16:11:03.318Z,16.00
2018-09-08T16:13:35.424Z,16.70
2018-09-08T16:16:03.576Z,16.60
2018-09-08T16:18:31.301Z,16.00
2018-09-08T16:20:59.059Z,16.20
2018-09-08T16:23:27.131Z,16.10
2018-09-08T16:25:54.893Z,16.30
2018-09-08T16:30:59.439Z,16.30
2018-09-08T16:33:29.298Z,16.50
2018-09-08T16:35:57.635Z,16.60
2018-09-08T16:38:32.824Z,16.90
2018-09-08T16:41:02.270Z,17.00
2018-09-08T16:43:30.102Z,16.60
2018-09-08T16:45:59.068Z,16.60
2018-09-08T16:48:27.206Z,16.70
2018-09-08T16:50:54.874Z,16.40
2018-09-08T16:53:22.663Z,16.30
2018-09-08T16:55:50.501Z,16.60
2018-09-08T16:58:22.015Z,16.40
2018-09-08T17:00:50.904Z,16.90
2018-09-08T17:03:18.752Z,16.80
2018-09-08T17:05:46.658Z,16.90
2018-09-08T17:08:19.234Z,16.50
2018-09-08T17:10:48.309Z,16.80
2018-09-08T17:13:17.986Z,16.60
2018-09-08T17:15:52.088Z,16.60
2018-09-08T17:18:19.809Z,16.60
2018-09-08T17:23:40.021Z,16.80
2018-09-08T17:26:07.741Z,16.80
2018-09-08T17:28:37.246Z,16.80
2018-09-08T17:31:06.826Z,16.80
2018-09-08T17:33:34.990Z,16.80
2018-09-08T17:36:03.401Z,16.80
2018-09-08T17:38:35.172Z,16.80
2018-09-08T17:41:02.993Z,16.80
2018-09-08T17:43:30.752Z,18.00
2018-09-08T17:45:58.434Z,18.50
2018-09-08T17:48:26.065Z,18.60
2018-09-08T17:50:58.773Z,18.80
2018-09-08T17:53:26.735Z,18.30
2018-09-08T17:55:54.683Z,18.40
2018-09-08T17:58:24.301Z,18.70
2018-09-08T18:00:52.424Z,19.30
2018-09-08T18:03:20.190Z,19.40
2018-09-08T18:05:48.510Z,19.10
2018-09-08T18:08:20.113Z,19.00
2018-09-08T18:10:47.865Z,19.20
2018-09-08T18:13:15.485Z,19.00
2018-09-08T18:15:43.204Z,19.40
2018-09-08T18:18:10.853Z,19.90
2018-09-08T18:20:38.494Z,19.30
2018-09-08T18:23:06.313Z,19.60
2018-09-08T18:25:34.620Z,19.40
2018-09-08T18:28:07.142Z,19.50
2018-09-08T18:30:34.881Z,19.40
2018-09-08T18:33:02.850Z,19.70
2018-09-08T18:35:31.077Z,19.60
2018-09-08T18:37:59.481Z,20.10
2018-09-08T18:40:27.199Z,20.60
2018-09-08T18:42:55.314Z,20.60
2018-09-08T18:45:22.944Z,20.30
2018-09-08T18:47:50.793Z,20.20
2018-09-08T18:50:19.003Z,20.70
2018-09-08T18:52:47.159Z,20.50
2018-09-08T18:55:14.786Z,20.50
2018-09-08T18:57:42.442Z,20.90
2018-09-08T19:00:10.271Z,21.30
2018-09-08T19:02:38.443Z,21.00
2018-09-08T19:05:06.184Z,20.60
2018-09-08T19:07:34.139Z,21.40
2018-09-08T19:10:04.618Z,21.40
2018-09-08T19:12:34.639Z,21.40
2018-09-08T19:15:07.887Z,21.50
2018-09-08T19:17:36.035Z,21.60
2018-09-08T19:20:09.689Z,22.00
2018-09-08T19:22:39.216Z,21.80
2018-09-08T19:25:06.895Z,22.40
2018-09-08T19:27:34.577Z,22.30
2018-09-08T19:30:03.225Z,22.50
2018-09-08T19:32:31.091Z,22.60
2018-09-08T19:35:04.391Z,22.80
2018-09-08T19:37:34.342Z,22.60
2018-09-08T19:40:01.983Z,23.00
2018-09-08T19:42:31.087Z,23.20
2018-09-08T19:44:58.855Z,23.10
2018-09-08T19:47:32.112Z,23.30
2018-09-08T19:49:59.741Z,23.40
2018-09-08T19:52:32.966Z,23.40
2018-09-08T19:55:00.663Z,23.70
2018-09-08T19:57:46.300Z,23.60
2018-09-08T20:00:13.909Z,24.10
2018-09-08T20:02:41.658Z,24.00
2018-09-08T20:05:09.507Z,23.80
2018-09-08T20:07:37.149Z,24.20
2018-09-08T20:10:21.466Z,24.20
2018-09-08T20:12:49.723Z,24.40
2018-09-08T20:15:17.464Z,24.40
2018-09-08T20:17:45.150Z,24.40
2018-09-08T20:20:12.927Z,24.40
2018-09-08T20:22:40.730Z,24.40
2018-09-08T20:25:08.446Z,24.40
2018-09-08T20:27:36.107Z,24.30
2018-09-08T20:30:04.091Z,24.30
2018-09-08T20:32:31.940Z,24.30
2018-09-08T20:34:59.750Z,24.60
2018-09-08T20:37:27.491Z,24.40
2018-09-08T20:39:55.534Z,24.60
2018-09-08T20:42:23.344Z,24.80
2018-09-08T20:44:51.032Z,24.90
2018-09-08T20:47:19.824Z,25.10
2018-09-08T20:49:47.732Z,25.50
2018-09-08T20:52:15.775Z,25.10
2018-09-08T20:54:43.575Z,25.00
2018-09-08T20:57:11.300Z,25.20
2018-09-08T20:59:39.174Z,25.00
2018-09-08T21:02:07.486Z,25.10
2018-09-08T21:04:35.205Z,25.00
2018-09-08T21:07:02.871Z,25.30
2018-09-08T21:09:31.550Z,25.30
2018-09-08T21:11:59.399Z,25.30
2018-09-08T21:14:27.160Z,25.60
2018-09-08T21:16:54.809Z,25.60
2018-09-08T21:19:23.336Z,25.50
2018-09-08T21:21:51.079Z,25.60
2018-09-08T21:24:18.772Z,25.50
2018-09-08T21:26:46.445Z,25.70
2018-09-08T21:29:14.082Z,25.50
2018-09-08T21:31:41.731Z,25.50
2018-09-08T21:34:09.500Z,25.80
2018-09-08T21:36:37.339Z,25.80
2018-09-08T21:39:06.450Z,26.10
2018-09-08T21:41:34.157Z,26.50
2018-09-08T21:44:01.859Z,26.10
2018-09-08T21:46:29.578Z,26.00
2018-09-08T21:48:57.462Z,26.10
2018-09-08T21:51:25.099Z,26.30
2018-09-08T21:53:52.725Z,26.50
2018-09-08T21:56:21.355Z,26.50
2018-09-08T21:58:49.537Z,26.50
2018-09-08T22:01:29.857Z,26.90
2018-09-08T22:03:57.659Z,26.90
2018-09-08T22:06:26.640Z,27.20
2018-09-08T22:08:54.376Z,27.20
2018-09-08T22:11:22.104Z,27.30
2018-09-08T22:13:49.921Z,27.20
2018-09-08T22:16:17.828Z,27.20
2018-09-08T22:18:45.673Z,26.90
2018-09-08T22:21:13.378Z,27.10
2018-09-08T22:23:42.441Z,27.10
2018-09-08T22:26:10.886Z,27.10
2018-09-08T22:28:38.818Z,27.20
2018-09-08T22:31:06.753Z,27.90
2018-09-08T22:33:34.532Z,27.20
2018-09-08T22:36:02.148Z,27.20
2018-09-08T22:38:30.207Z,27.20
2018-09-08T22:40:58.070Z,27.40
2018-09-08T22:43:27.356Z,27.50
2018-09-08T22:45:55.091Z,27.60
2018-09-08T22:48:23.397Z,27.50
2018-09-08T22:50:51.028Z,27.70
2018-09-08T22:53:19.043Z,27.80
2018-09-08T22:55:46.790Z,28.30
2018-09-08T22:58:16.785Z,28.10
2018-09-08T23:00:44.530Z,28.30
2018-09-08T23:03:13.278Z,28.40
2018-09-08T23:05:40.974Z,28.70
2018-09-08T23:08:08.650Z,28.60
2018-09-08T23:10:36.380Z,28.70
2018-09-08T23:13:14.384Z,29.50
2018-09-08T23:15:42.093Z,28.90
2018-09-08T23:18:27.255Z,28.90
2018-09-08T23:24:12.219Z,29.00
2018-09-08T23:26:39.872Z,29.10
2018-09-08T23:29:08.538Z,29.20
2018-09-08T23:31:46.715Z,29.30
2018-09-08T23:34:15.658Z,29.40
2018-09-08T23:36:43.945Z,29.60
2018-09-08T23:39:11.518Z,29.30
2018-09-08T23:41:39.096Z,29.40
2018-09-08T23:44:06.955Z,29.70
2018-09-08T23:49:25.068Z,29.90
2018-09-08T23:51:52.642Z,29.90
2018-09-08T23:54:20.372Z,29.90
2018-09-08T23:56:48.347Z,30.00
2018-09-08T23:59:16.087Z,30.00
